sensor_id;sensor_type;location;lat;lon;timestamp;P1;durP1;ratioP1;P2;durP2;ratioP2
56122;SDS011;42426;46.104;19.656;2022-11-15T00:01:58;48.80;;;28.52;;
56122;SDS011;42426;46.104;19.656;2022-11-15T00:04:23;46.42;;;27.67;;
56122;SDS011;42426;46.104;19.656;2022-11-15T00:06:49;46.00;;;29.10;;
56122;SDS011;42426;46.104;19.656;2022-11-15T00:09:15;41.40;;;27.25;;
56122;SDS011;42426;46.104;19.656;2022-11-15T00:11:40;44.97;;;27.55;;
56122;SDS011;42426;46.104;19.656;2022-11-15T00:14:07;46.83;;;28.65;;
56122;SDS011;42426;46.104;19.656;2022-11-15T00:16:33;46.90;;;30.17;;
56122;SDS011;42426;46.104;19.656;2022-11-15T00:19:03;44.22;;;27.33;;
56122;SDS011;42426;46.104;19.656;2022-11-15T00:21:29;41.90;;;27.55;;
56122;SDS011;42426;46.104;19.656;2022-11-15T00:23:54;43.70;;;27.17;;
56122;SDS011;42426;46.104;19.656;2022-11-15T00:26:21;41.67;;;27.25;;
56122;SDS011;42426;46.104;19.656;2022-11-15T00:28:47;44.90;;;26.45;;
56122;SDS011;42426;46.104;19.656;2022-11-15T00:31:14;42.13;;;27.08;;
56122;SDS011;42426;46.104;19.656;2022-11-15T00:33:42;44.47;;;27.27;;
56122;SDS011;42426;46.104;19.656;2022-11-15T00:36:08;45.15;;;27.48;;
56122;SDS011;42426;46.104;19.656;2022-11-15T00:38:36;39.88;;;26.00;;
56122;SDS011;42426;46.104;19.656;2022-11-15T00:41:04;44.33;;;26.90;;
56122;SDS011;42426;46.104;19.656;2022-11-15T00:43:31;39.42;;;26.80;;
56122;SDS011;42426;46.104;19.656;2022-11-15T00:45:59;45.85;;;27.45;;
56122;SDS011;42426;46.104;19.656;2022-11-15T00:48:25;43.03;;;26.83;;
56122;SDS011;42426;46.104;19.656;2022-11-15T00:50:51;46.35;;;28.70;;
56122;SDS011;42426;46.104;19.656;2022-11-15T00:53:17;41.75;;;27.25;;
56122;SDS011;42426;46.104;19.656;2022-11-15T00:55:43;41.80;;;26.50;;
56122;SDS011;42426;46.104;19.656;2022-11-15T00:58:10;40.58;;;25.77;;
56122;SDS011;42426;46.104;19.656;2022-11-15T01:00:35;37.33;;;27.05;;
56122;SDS011;42426;46.104;19.656;2022-11-15T01:03:01;39.50;;;25.63;;
56122;SDS011;42426;46.104;19.656;2022-11-15T01:05:27;41.90;;;27.80;;
56122;SDS011;42426;46.104;19.656;2022-11-15T01:07:58;42.20;;;26.95;;
56122;SDS011;42426;46.104;19.656;2022-11-15T01:10:24;38.30;;;25.85;;
56122;SDS011;42426;46.104;19.656;2022-11-15T01:12:50;40.13;;;25.88;;
56122;SDS011;42426;46.104;19.656;2022-11-15T01:15:16;43.42;;;26.85;;
56122;SDS011;42426;46.104;19.656;2022-11-15T01:17:42;36.28;;;24.48;;
56122;SDS011;42426;46.104;19.656;2022-11-15T01:20:08;37.83;;;25.45;;
56122;SDS011;42426;46.104;19.656;2022-11-15T01:22:34;40.35;;;26.65;;
56122;SDS011;42426;46.104;19.656;2022-11-15T01:25:00;40.67;;;27.08;;
56122;SDS011;42426;46.104;19.656;2022-11-15T01:27:26;40.38;;;26.13;;
56122;SDS011;42426;46.104;19.656;2022-11-15T01:29:51;41.90;;;27.45;;
56122;SDS011;42426;46.104;19.656;2022-11-15T01:32:17;39.35;;;27.00;;
56122;SDS011;42426;46.104;19.656;2022-11-15T01:34:44;37.33;;;25.23;;
56122;SDS011;42426;46.104;19.656;2022-11-15T01:37:09;36.55;;;24.58;;
56122;SDS011;42426;46.104;19.656;2022-11-15T01:39:35;39.28;;;25.95;;
56122;SDS011;42426;46.104;19.656;2022-11-15T01:42:01;38.28;;;26.35;;
56122;SDS011;42426;46.104;19.656;2022-11-15T01:46:56;42.55;;;28.15;;
56122;SDS011;42426;46.104;19.656;2022-11-15T01:49:23;40.17;;;27.02;;
56122;SDS011;42426;46.104;19.656;2022-11-15T01:51:49;40.50;;;26.33;;
56122;SDS011;42426;46.104;19.656;2022-11-15T01:54:17;42.80;;;28.45;;
56122;SDS011;42426;46.104;19.656;2022-11-15T01:56:48;41.28;;;26.92;;
56122;SDS011;42426;46.104;19.656;2022-11-15T01:59:26;39.10;;;27.23;;
56122;SDS011;42426;46.104;19.656;2022-11-15T02:01:53;39.28;;;26.33;;
56122;SDS011;42426;46.104;19.656;2022-11-15T02:04:36;38.30;;;26.83;;
56122;SDS011;42426;46.104;19.656;2022-11-15T02:07:06;39.63;;;27.40;;
56122;SDS011;42426;46.104;19.656;2022-11-15T02:09:37;36.67;;;24.42;;
56122;SDS011;42426;46.104;19.656;2022-11-15T02:12:03;44.13;;;27.73;;
56122;SDS011;42426;46.104;19.656;2022-11-15T02:14:30;40.97;;;27.30;;
56122;SDS011;42426;46.104;19.656;2022-11-15T02:41:15;43.58;;;27.15;;
56122;SDS011;42426;46.104;19.656;2022-11-15T02:44:11;41.30;;;26.65;;
56122;SDS011;42426;46.104;19.656;2022-11-15T02:46:50;41.63;;;25.67;;
56122;SDS011;42426;46.104;19.656;2022-11-15T02:49:37;39.85;;;25.70;;
56122;SDS011;42426;46.104;19.656;2022-11-15T02:52:07;42.50;;;25.85;;
56122;SDS011;42426;46.104;19.656;2022-11-15T02:54:33;37.40;;;24.98;;
56122;SDS011;42426;46.104;19.656;2022-11-15T02:57:04;40.33;;;25.98;;
56122;SDS011;42426;46.104;19.656;2022-11-15T03:08:46;40.58;;;26.25;;
56122;SDS011;42426;46.104;19.656;2022-11-15T03:11:20;39.78;;;26.80;;
56122;SDS011;42426;46.104;19.656;2022-11-15T03:18:43;45.13;;;28.73;;
56122;SDS011;42426;46.104;19.656;2022-11-15T03:21:12;41.85;;;27.23;;
56122;SDS011;42426;46.104;19.656;2022-11-15T03:23:40;48.20;;;26.83;;
56122;SDS011;42426;46.104;19.656;2022-11-15T03:26:10;43.35;;;27.65;;
56122;SDS011;42426;46.104;19.656;2022-11-15T03:31:31;44.05;;;27.63;;
56122;SDS011;42426;46.104;19.656;2022-11-15T03:34:47;37.65;;;25.70;;
56122;SDS011;42426;46.104;19.656;2022-11-15T03:37:16;37.50;;;25.38;;
56122;SDS011;42426;46.104;19.656;2022-11-15T03:39:46;41.33;;;26.80;;
56122;SDS011;42426;46.104;19.656;2022-11-15T03:47:47;42.97;;;26.13;;
56122;SDS011;42426;46.104;19.656;2022-11-15T03:50:19;41.47;;;26.17;;
56122;SDS011;42426;46.104;19.656;2022-11-15T03:52:47;40.15;;;25.38;;
56122;SDS011;42426;46.104;19.656;2022-11-15T03:55:16;42.97;;;27.55;;
56122;SDS011;42426;46.104;19.656;2022-11-15T03:57:44;43.30;;;28.08;;
56122;SDS011;42426;46.104;19.656;2022-11-15T04:00:11;41.80;;;27.73;;
56122;SDS011;42426;46.104;19.656;2022-11-15T04:02:37;40.05;;;26.35;;
56122;SDS011;42426;46.104;19.656;2022-11-15T04:05:03;41.75;;;27.00;;
56122;SDS011;42426;46.104;19.656;2022-11-15T04:07:35;43.33;;;27.67;;
56122;SDS011;42426;46.104;19.656;2022-11-15T04:10:01;42.90;;;26.05;;
56122;SDS011;42426;46.104;19.656;2022-11-15T04:12:37;40.60;;;24.50;;
56122;SDS011;42426;46.104;19.656;2022-11-15T04:15:10;45.15;;;26.13;;
56122;SDS011;42426;46.104;19.656;2022-11-15T04:17:41;42.50;;;25.92;;
56122;SDS011;42426;46.104;19.656;2022-11-15T04:20:20;41.85;;;26.83;;
56122;SDS011;42426;46.104;19.656;2022-11-15T04:23:08;42.10;;;25.35;;
56122;SDS011;42426;46.104;19.656;2022-11-15T04:25:55;39.83;;;25.10;;
56122;SDS011;42426;46.104;19.656;2022-11-15T04:28:23;43.42;;;25.98;;
56122;SDS011;42426;46.104;19.656;2022-11-15T04:30:49;40.85;;;24.92;;
56122;SDS011;42426;46.104;19.656;2022-11-15T04:33:14;40.88;;;24.70;;
56122;SDS011;42426;46.104;19.656;2022-11-15T04:35:41;39.30;;;25.90;;
56122;SDS011;42426;46.104;19.656;2022-11-15T04:38:08;38.20;;;24.67;;
56122;SDS011;42426;46.104;19.656;2022-11-15T04:40:38;43.22;;;26.65;;
56122;SDS011;42426;46.104;19.656;2022-11-15T04:43:04;45.38;;;25.73;;
56122;SDS011;42426;46.104;19.656;2022-11-15T04:45:30;40.17;;;24.10;;
56122;SDS011;42426;46.104;19.656;2022-11-15T04:47:56;43.50;;;26.17;;
56122;SDS011;42426;46.104;19.656;2022-11-15T04:50:21;41.92;;;24.48;;
56122;SDS011;42426;46.104;19.656;2022-11-15T04:52:51;41.75;;;25.58;;
56122;SDS011;42426;46.104;19.656;2022-11-15T04:55:19;39.22;;;25.48;;
56122;SDS011;42426;46.104;19.656;2022-11-15T04:57:45;44.38;;;25.73;;
56122;SDS011;42426;46.104;19.656;2022-11-15T05:00:12;39.15;;;25.70;;
56122;SDS011;42426;46.104;19.656;2022-11-15T05:02:39;40.17;;;25.10;;
56122;SDS011;42426;46.104;19.656;2022-11-15T05:05:24;41.72;;;23.48;;
56122;SDS011;42426;46.104;19.656;2022-11-15T05:07:50;38.83;;;25.33;;
56122;SDS011;42426;46.104;19.656;2022-11-15T05:10:16;40.70;;;24.25;;
56122;SDS011;42426;46.104;19.656;2022-11-15T05:12:42;43.17;;;27.30;;
56122;SDS011;42426;46.104;19.656;2022-11-15T05:15:08;43.67;;;28.40;;
56122;SDS011;42426;46.104;19.656;2022-11-15T05:17:34;40.75;;;26.45;;
56122;SDS011;42426;46.104;19.656;2022-11-15T05:20:00;42.78;;;27.90;;
56122;SDS011;42426;46.104;19.656;2022-11-15T05:22:26;41.00;;;25.50;;
56122;SDS011;42426;46.104;19.656;2022-11-15T05:24:52;38.30;;;25.10;;
56122;SDS011;42426;46.104;19.656;2022-11-15T05:27:18;42.95;;;24.90;;
56122;SDS011;42426;46.104;19.656;2022-11-15T05:29:44;41.38;;;25.48;;
56122;SDS011;42426;46.104;19.656;2022-11-15T05:32:10;38.45;;;25.67;;
56122;SDS011;42426;46.104;19.656;2022-11-15T05:34:38;40.13;;;25.60;;
56122;SDS011;42426;46.104;19.656;2022-11-15T05:37:04;36.35;;;22.65;;
56122;SDS011;42426;46.104;19.656;2022-11-15T05:39:30;41.47;;;25.48;;
56122;SDS011;42426;46.104;19.656;2022-11-15T05:42:14;41.67;;;25.55;;
56122;SDS011;42426;46.104;19.656;2022-11-15T05:45:00;39.60;;;25.55;;
56122;SDS011;42426;46.104;19.656;2022-11-15T05:47:29;38.40;;;25.10;;
56122;SDS011;42426;46.104;19.656;2022-11-15T05:49:55;41.80;;;25.10;;
56122;SDS011;42426;46.104;19.656;2022-11-15T05:52:23;41.85;;;25.95;;
56122;SDS011;42426;46.104;19.656;2022-11-15T05:54:54;41.50;;;26.58;;
56122;SDS011;42426;46.104;19.656;2022-11-15T05:57:21;39.75;;;26.25;;
56122;SDS011;42426;46.104;19.656;2022-11-15T05:59:47;41.65;;;26.52;;
56122;SDS011;42426;46.104;19.656;2022-11-15T06:02:13;40.67;;;28.40;;
56122;SDS011;42426;46.104;19.656;2022-11-15T06:04:39;41.90;;;26.33;;
56122;SDS011;42426;46.104;19.656;2022-11-15T06:07:07;43.45;;;27.45;;
56122;SDS011;42426;46.104;19.656;2022-11-15T06:09:32;45.67;;;27.65;;
56122;SDS011;42426;46.104;19.656;2022-11-15T06:11:58;49.67;;;27.88;;
56122;SDS011;42426;46.104;19.656;2022-11-15T06:14:27;42.25;;;25.63;;
56122;SDS011;42426;46.104;19.656;2022-11-15T06:16:52;45.58;;;26.17;;
56122;SDS011;42426;46.104;19.656;2022-11-15T06:19:18;46.92;;;28.55;;
56122;SDS011;42426;46.104;19.656;2022-11-15T06:21:44;45.97;;;27.20;;
56122;SDS011;42426;46.104;19.656;2022-11-15T06:24:11;44.75;;;27.73;;
56122;SDS011;42426;46.104;19.656;2022-11-15T06:26:37;45.33;;;28.00;;
56122;SDS011;42426;46.104;19.656;2022-11-15T06:29:03;45.50;;;27.05;;
56122;SDS011;42426;46.104;19.656;2022-11-15T06:31:29;41.03;;;25.13;;
56122;SDS011;42426;46.104;19.656;2022-11-15T06:33:55;38.22;;;23.52;;
56122;SDS011;42426;46.104;19.656;2022-11-15T06:36:21;41.55;;;23.98;;
56122;SDS011;42426;46.104;19.656;2022-11-15T06:38:48;39.28;;;23.60;;
56122;SDS011;42426;46.104;19.656;2022-11-15T06:41:14;43.47;;;22.83;;
56122;SDS011;42426;46.104;19.656;2022-11-15T06:43:41;38.42;;;23.30;;
56122;SDS011;42426;46.104;19.656;2022-11-15T06:46:07;46.75;;;25.60;;
56122;SDS011;42426;46.104;19.656;2022-11-15T06:48:34;43.05;;;23.98;;
56122;SDS011;42426;46.104;19.656;2022-11-15T06:51:01;41.45;;;26.33;;
56122;SDS011;42426;46.104;19.656;2022-11-15T06:53:29;38.47;;;23.85;;
56122;SDS011;42426;46.104;19.656;2022-11-15T06:56:13;43.10;;;25.13;;
56122;SDS011;42426;46.104;19.656;2022-11-15T06:58:39;43.83;;;25.10;;
56122;SDS011;42426;46.104;19.656;2022-11-15T07:01:07;50.20;;;28.33;;
56122;SDS011;42426;46.104;19.656;2022-11-15T07:03:35;44.53;;;26.63;;
56122;SDS011;42426;46.104;19.656;2022-11-15T07:06:02;51.13;;;29.27;;
56122;SDS011;42426;46.104;19.656;2022-11-15T07:08:28;52.60;;;28.30;;
56122;SDS011;42426;46.104;19.656;2022-11-15T07:11:00;56.83;;;30.02;;
56122;SDS011;42426;46.104;19.656;2022-11-15T07:13:27;53.50;;;29.08;;
56122;SDS011;42426;46.104;19.656;2022-11-15T07:15:57;42.58;;;27.45;;
56122;SDS011;42426;46.104;19.656;2022-11-15T07:18:27;52.05;;;28.08;;
56122;SDS011;42426;46.104;19.656;2022-11-15T07:20:53;48.20;;;29.58;;
56122;SDS011;42426;46.104;19.656;2022-11-15T07:23:18;49.40;;;30.13;;
56122;SDS011;42426;46.104;19.656;2022-11-15T07:25:44;53.15;;;29.45;;
56122;SDS011;42426;46.104;19.656;2022-11-15T07:28:10;56.10;;;29.48;;
56122;SDS011;42426;46.104;19.656;2022-11-15T07:30:39;49.97;;;27.45;;
56122;SDS011;42426;46.104;19.656;2022-11-15T07:33:05;52.70;;;30.00;;
56122;SDS011;42426;46.104;19.656;2022-11-15T07:35:30;52.03;;;26.90;;
56122;SDS011;42426;46.104;19.656;2022-11-15T07:37:58;49.35;;;28.17;;
56122;SDS011;42426;46.104;19.656;2022-11-15T07:40:25;49.53;;;27.52;;
56122;SDS011;42426;46.104;19.656;2022-11-15T07:42:52;56.80;;;30.90;;
56122;SDS011;42426;46.104;19.656;2022-11-15T07:45:24;52.00;;;30.00;;
56122;SDS011;42426;46.104;19.656;2022-11-15T07:47:53;54.83;;;30.42;;
56122;SDS011;42426;46.104;19.656;2022-11-15T07:50:21;50.42;;;29.40;;
56122;SDS011;42426;46.104;19.656;2022-11-15T07:52:53;54.15;;;30.48;;
56122;SDS011;42426;46.104;19.656;2022-11-15T07:55:23;58.90;;;30.98;;
56122;SDS011;42426;46.104;19.656;2022-11-15T07:57:59;63.53;;;31.27;;
56122;SDS011;42426;46.104;19.656;2022-11-15T08:00:29;53.50;;;31.17;;
56122;SDS011;42426;46.104;19.656;2022-11-15T08:03:02;55.53;;;30.40;;
56122;SDS011;42426;46.104;19.656;2022-11-15T08:05:34;56.35;;;31.35;;
56122;SDS011;42426;46.104;19.656;2022-11-15T08:08:00;57.53;;;31.30;;
56122;SDS011;42426;46.104;19.656;2022-11-15T08:10:30;62.70;;;31.95;;
56122;SDS011;42426;46.104;19.656;2022-11-15T08:12:57;58.80;;;30.50;;
56122;SDS011;42426;46.104;19.656;2022-11-15T08:15:25;62.75;;;36.50;;
56122;SDS011;42426;46.104;19.656;2022-11-15T08:17:55;57.42;;;32.88;;
56122;SDS011;42426;46.104;19.656;2022-11-15T08:20:28;55.85;;;32.30;;
56122;SDS011;42426;46.104;19.656;2022-11-15T08:22:58;68.25;;;38.35;;
56122;SDS011;42426;46.104;19.656;2022-11-15T08:25:30;62.88;;;35.65;;
56122;SDS011;42426;46.104;19.656;2022-11-15T08:27:59;68.22;;;38.17;;
56122;SDS011;42426;46.104;19.656;2022-11-15T08:30:33;69.85;;;39.08;;
56122;SDS011;42426;46.104;19.656;2022-11-15T08:33:01;73.22;;;40.60;;
56122;SDS011;42426;46.104;19.656;2022-11-15T08:35:27;66.35;;;39.33;;
56122;SDS011;42426;46.104;19.656;2022-11-15T08:38:00;74.70;;;38.75;;
56122;SDS011;42426;46.104;19.656;2022-11-15T08:40:25;69.20;;;41.13;;
56122;SDS011;42426;46.104;19.656;2022-11-15T08:42:52;77.40;;;42.15;;
56122;SDS011;42426;46.104;19.656;2022-11-15T08:45:22;70.82;;;39.88;;
56122;SDS011;42426;46.104;19.656;2022-11-15T08:47:48;74.32;;;40.58;;
56122;SDS011;42426;46.104;19.656;2022-11-15T08:50:14;68.05;;;38.13;;
56122;SDS011;42426;46.104;19.656;2022-11-15T08:52:40;74.10;;;40.70;;
56122;SDS011;42426;46.104;19.656;2022-11-15T08:55:06;68.13;;;37.88;;
56122;SDS011;42426;46.104;19.656;2022-11-15T08:57:32;71.97;;;43.38;;
56122;SDS011;42426;46.104;19.656;2022-11-15T08:59:58;76.93;;;40.38;;
56122;SDS011;42426;46.104;19.656;2022-11-15T09:02:23;76.20;;;41.60;;
56122;SDS011;42426;46.104;19.656;2022-11-15T09:04:49;83.05;;;44.08;;
56122;SDS011;42426;46.104;19.656;2022-11-15T09:07:15;77.88;;;39.63;;
56122;SDS011;42426;46.104;19.656;2022-11-15T09:09:41;79.10;;;42.72;;
56122;SDS011;42426;46.104;19.656;2022-11-15T09:12:07;90.88;;;47.05;;
56122;SDS011;42426;46.104;19.656;2022-11-15T09:14:33;83.57;;;44.38;;
56122;SDS011;42426;46.104;19.656;2022-11-15T09:16:59;79.00;;;42.35;;
56122;SDS011;42426;46.104;19.656;2022-11-15T09:19:26;87.43;;;47.97;;
56122;SDS011;42426;46.104;19.656;2022-11-15T09:21:52;81.35;;;46.65;;
56122;SDS011;42426;46.104;19.656;2022-11-15T09:24:18;82.90;;;43.47;;
56122;SDS011;42426;46.104;19.656;2022-11-15T09:26:44;87.80;;;47.65;;
56122;SDS011;42426;46.104;19.656;2022-11-15T09:29:09;88.90;;;47.72;;
56122;SDS011;42426;46.104;19.656;2022-11-15T09:31:35;86.45;;;46.30;;
56122;SDS011;42426;46.104;19.656;2022-11-15T09:34:02;90.88;;;49.40;;
56122;SDS011;42426;46.104;19.656;2022-11-15T09:36:28;95.90;;;50.10;;
56122;SDS011;42426;46.104;19.656;2022-11-15T09:38:58;83.95;;;46.88;;
56122;SDS011;42426;46.104;19.656;2022-11-15T09:44:24;105.13;;;58.53;;
56122;SDS011;42426;46.104;19.656;2022-11-15T09:50:08;91.18;;;47.28;;
56122;SDS011;42426;46.104;19.656;2022-11-15T09:52:37;89.10;;;50.05;;
56122;SDS011;42426;46.104;19.656;2022-11-15T09:55:08;90.47;;;47.88;;
56122;SDS011;42426;46.104;19.656;2022-11-15T09:57:41;92.95;;;49.47;;
56122;SDS011;42426;46.104;19.656;2022-11-15T10:05:19;84.95;;;43.30;;
56122;SDS011;42426;46.104;19.656;2022-11-15T10:10:25;91.25;;;47.08;;
56122;SDS011;42426;46.104;19.656;2022-11-15T10:13:04;80.38;;;44.17;;
56122;SDS011;42426;46.104;19.656;2022-11-15T10:15:34;81.68;;;45.45;;
56122;SDS011;42426;46.104;19.656;2022-11-15T10:21:27;85.10;;;47.17;;
56122;SDS011;42426;46.104;19.656;2022-11-15T10:24:01;94.95;;;50.30;;
56122;SDS011;42426;46.104;19.656;2022-11-15T10:26:31;83.40;;;47.85;;
56122;SDS011;42426;46.104;19.656;2022-11-15T10:28:58;92.57;;;50.95;;
56122;SDS011;42426;46.104;19.656;2022-11-15T10:31:24;89.00;;;50.20;;
56122;SDS011;42426;46.104;19.656;2022-11-15T10:39:23;90.90;;;50.20;;
56122;SDS011;42426;46.104;19.656;2022-11-15T10:41:50;86.97;;;49.15;;
56122;SDS011;42426;46.104;19.656;2022-11-15T10:44:19;91.63;;;50.45;;
56122;SDS011;42426;46.104;19.656;2022-11-15T10:49:26;84.00;;;48.80;;
56122;SDS011;42426;46.104;19.656;2022-11-15T10:51:55;90.35;;;47.35;;
56122;SDS011;42426;46.104;19.656;2022-11-15T10:56:56;86.07;;;47.83;;
56122;SDS011;42426;46.104;19.656;2022-11-15T10:59:27;77.88;;;46.08;;
56122;SDS011;42426;46.104;19.656;2022-11-15T11:04:24;85.35;;;46.03;;
56122;SDS011;42426;46.104;19.656;2022-11-15T11:11:53;79.40;;;44.88;;
56122;SDS011;42426;46.104;19.656;2022-11-15T11:14:23;77.38;;;44.03;;
56122;SDS011;42426;46.104;19.656;2022-11-15T11:24:59;81.40;;;46.20;;
56122;SDS011;42426;46.104;19.656;2022-11-15T11:47:55;74.45;;;44.03;;
56122;SDS011;42426;46.104;19.656;2022-11-15T11:50:27;79.80;;;48.45;;
56122;SDS011;42426;46.104;19.656;2022-11-15T11:53:11;82.35;;;49.45;;
56122;SDS011;42426;46.104;19.656;2022-11-15T11:55:51;74.70;;;47.60;;
56122;SDS011;42426;46.104;19.656;2022-11-15T11:58:21;75.50;;;47.38;;
56122;SDS011;42426;46.104;19.656;2022-11-15T12:00:54;77.20;;;47.58;;
56122;SDS011;42426;46.104;19.656;2022-11-15T12:03:27;75.72;;;46.72;;
56122;SDS011;42426;46.104;19.656;2022-11-15T12:06:06;73.38;;;46.40;;
56122;SDS011;42426;46.104;19.656;2022-11-15T12:15:04;73.43;;;48.00;;
56122;SDS011;42426;46.104;19.656;2022-11-15T12:18:03;69.22;;;42.22;;
56122;SDS011;42426;46.104;19.656;2022-11-15T12:20:32;78.30;;;48.25;;
56122;SDS011;42426;46.104;19.656;2022-11-15T12:23:12;71.15;;;45.47;;
56122;SDS011;42426;46.104;19.656;2022-11-15T12:26:08;72.95;;;45.28;;
56122;SDS011;42426;46.104;19.656;2022-11-15T12:31:50;68.30;;;45.20;;
56122;SDS011;42426;46.104;19.656;2022-11-15T12:36:47;75.03;;;45.85;;
56122;SDS011;42426;46.104;19.656;2022-11-15T12:39:14;74.85;;;45.58;;
56122;SDS011;42426;46.104;19.656;2022-11-15T12:41:41;80.05;;;48.63;;
56122;SDS011;42426;46.104;19.656;2022-11-15T12:44:12;84.55;;;51.67;;
56122;SDS011;42426;46.104;19.656;2022-11-15T12:59:51;87.90;;;54.80;;
56122;SDS011;42426;46.104;19.656;2022-11-15T13:02:40;80.30;;;52.53;;
56122;SDS011;42426;46.104;19.656;2022-11-15T13:17:47;84.55;;;53.58;;
56122;SDS011;42426;46.104;19.656;2022-11-15T13:22:42;85.22;;;51.97;;
56122;SDS011;42426;46.104;19.656;2022-11-15T13:30:49;86.70;;;52.67;;
56122;SDS011;42426;46.104;19.656;2022-11-15T13:33:19;87.00;;;53.03;;
56122;SDS011;42426;46.104;19.656;2022-11-15T13:36:05;80.20;;;51.33;;
56122;SDS011;42426;46.104;19.656;2022-11-15T13:38:34;82.53;;;51.53;;
56122;SDS011;42426;46.104;19.656;2022-11-15T13:43:52;87.03;;;53.08;;
56122;SDS011;42426;46.104;19.656;2022-11-15T13:49:31;82.40;;;53.55;;
56122;SDS011;42426;46.104;19.656;2022-11-15T13:51:50;88.60;;;56.25;;
56122;SDS011;42426;46.104;19.656;2022-11-15T13:54:30;94.47;;;57.75;;
56122;SDS011;42426;46.104;19.656;2022-11-15T13:59:57;84.50;;;54.88;;
56122;SDS011;42426;46.104;19.656;2022-11-15T14:02:29;86.90;;;54.03;;
56122;SDS011;42426;46.104;19.656;2022-11-15T14:05:00;90.03;;;56.38;;
56122;SDS011;42426;46.104;19.656;2022-11-15T14:07:27;105.38;;;68.43;;
56122;SDS011;42426;46.104;19.656;2022-11-15T14:09:53;103.47;;;67.05;;
56122;SDS011;42426;46.104;19.656;2022-11-15T14:15:18;100.70;;;68.00;;
56122;SDS011;42426;46.104;19.656;2022-11-15T14:17:55;101.47;;;65.55;;
56122;SDS011;42426;46.104;19.656;2022-11-15T14:22:52;106.55;;;66.57;;
56122;SDS011;42426;46.104;19.656;2022-11-15T14:25:32;111.63;;;70.18;;
56122;SDS011;42426;46.104;19.656;2022-11-15T14:28:14;113.80;;;72.72;;
56122;SDS011;42426;46.104;19.656;2022-11-15T14:30:54;135.70;;;89.85;;
56122;SDS011;42426;46.104;19.656;2022-11-15T14:33:32;128.40;;;79.22;;
56122;SDS011;42426;46.104;19.656;2022-11-15T14:36:09;115.78;;;74.63;;
56122;SDS011;42426;46.104;19.656;2022-11-15T14:38:36;128.75;;;82.75;;
56122;SDS011;42426;46.104;19.656;2022-11-15T14:41:02;135.70;;;82.43;;
56122;SDS011;42426;46.104;19.656;2022-11-15T14:43:28;128.85;;;79.28;;
56122;SDS011;42426;46.104;19.656;2022-11-15T14:46:00;119.68;;;77.60;;
56122;SDS011;42426;46.104;19.656;2022-11-15T14:48:29;113.70;;;74.40;;
56122;SDS011;42426;46.104;19.656;2022-11-15T14:50:56;113.57;;;71.85;;
56122;SDS011;42426;46.104;19.656;2022-11-15T14:53:21;122.65;;;72.78;;
56122;SDS011;42426;46.104;19.656;2022-11-15T14:55:48;118.90;;;71.90;;
56122;SDS011;42426;46.104;19.656;2022-11-15T14:58:14;111.60;;;68.18;;
56122;SDS011;42426;46.104;19.656;2022-11-15T15:00:40;112.70;;;68.97;;
56122;SDS011;42426;46.104;19.656;2022-11-15T15:03:06;113.07;;;67.80;;
56122;SDS011;42426;46.104;19.656;2022-11-15T15:05:35;122.07;;;70.38;;
56122;SDS011;42426;46.104;19.656;2022-11-15T15:08:02;119.88;;;72.43;;
56122;SDS011;42426;46.104;19.656;2022-11-15T15:10:40;122.03;;;74.53;;
56122;SDS011;42426;46.104;19.656;2022-11-15T15:13:18;119.80;;;72.22;;
56122;SDS011;42426;46.104;19.656;2022-11-15T15:15:46;120.35;;;73.13;;
56122;SDS011;42426;46.104;19.656;2022-11-15T15:18:15;129.50;;;81.65;;
56122;SDS011;42426;46.104;19.656;2022-11-15T15:20:42;129.05;;;83.28;;
56122;SDS011;42426;46.104;19.656;2022-11-15T15:23:15;127.72;;;81.10;;
56122;SDS011;42426;46.104;19.656;2022-11-15T15:25:43;122.65;;;74.70;;
56122;SDS011;42426;46.104;19.656;2022-11-15T15:28:13;136.45;;;79.82;;
56122;SDS011;42426;46.104;19.656;2022-11-15T15:30:40;119.22;;;69.93;;
56122;SDS011;42426;46.104;19.656;2022-11-15T15:33:06;122.63;;;71.03;;
56122;SDS011;42426;46.104;19.656;2022-11-15T15:35:32;122.53;;;72.95;;
56122;SDS011;42426;46.104;19.656;2022-11-15T15:37:59;130.70;;;78.50;;
56122;SDS011;42426;46.104;19.656;2022-11-15T15:40:27;127.93;;;76.88;;
56122;SDS011;42426;46.104;19.656;2022-11-15T15:42:54;132.85;;;76.38;;
56122;SDS011;42426;46.104;19.656;2022-11-15T15:45:19;126.85;;;78.93;;
56122;SDS011;42426;46.104;19.656;2022-11-15T15:47:47;136.60;;;77.93;;
56122;SDS011;42426;46.104;19.656;2022-11-15T15:50:35;129.88;;;78.13;;
56122;SDS011;42426;46.104;19.656;2022-11-15T15:53:01;137.38;;;82.07;;
56122;SDS011;42426;46.104;19.656;2022-11-15T15:55:28;133.68;;;83.40;;
56122;SDS011;42426;46.104;19.656;2022-11-15T15:57:54;137.35;;;79.95;;
56122;SDS011;42426;46.104;19.656;2022-11-15T16:00:21;133.57;;;79.13;;
56122;SDS011;42426;46.104;19.656;2022-11-15T16:02:48;128.65;;;80.93;;
56122;SDS011;42426;46.104;19.656;2022-11-15T16:05:15;134.13;;;79.78;;
56122;SDS011;42426;46.104;19.656;2022-11-15T16:07:42;131.50;;;79.88;;
56122;SDS011;42426;46.104;19.656;2022-11-15T16:10:17;132.20;;;83.65;;
56122;SDS011;42426;46.104;19.656;2022-11-15T16:12:55;138.05;;;79.70;;
56122;SDS011;42426;46.104;19.656;2022-11-15T16:15:22;135.60;;;80.88;;
56122;SDS011;42426;46.104;19.656;2022-11-15T16:17:51;134.40;;;80.20;;
56122;SDS011;42426;46.104;19.656;2022-11-15T16:20:32;146.05;;;82.30;;
56122;SDS011;42426;46.104;19.656;2022-11-15T16:23:03;135.68;;;82.25;;
56122;SDS011;42426;46.104;19.656;2022-11-15T16:25:33;138.30;;;83.40;;
56122;SDS011;42426;46.104;19.656;2022-11-15T16:30:36;135.52;;;80.18;;
56122;SDS011;42426;46.104;19.656;2022-11-15T16:33:02;127.20;;;76.22;;
56122;SDS011;42426;46.104;19.656;2022-11-15T16:35:28;130.93;;;78.28;;
56122;SDS011;42426;46.104;19.656;2022-11-15T16:37:53;133.95;;;77.68;;
56122;SDS011;42426;46.104;19.656;2022-11-15T16:40:26;137.05;;;80.75;;
56122;SDS011;42426;46.104;19.656;2022-11-15T16:42:55;127.10;;;77.30;;
56122;SDS011;42426;46.104;19.656;2022-11-15T16:45:22;135.18;;;78.20;;
56122;SDS011;42426;46.104;19.656;2022-11-15T16:47:48;131.73;;;77.13;;
56122;SDS011;42426;46.104;19.656;2022-11-15T16:50:25;135.13;;;81.72;;
56122;SDS011;42426;46.104;19.656;2022-11-15T16:52:55;147.73;;;86.38;;
56122;SDS011;42426;46.104;19.656;2022-11-15T16:55:23;147.95;;;84.95;;
56122;SDS011;42426;46.104;19.656;2022-11-15T17:01:16;146.52;;;86.70;;
56122;SDS011;42426;46.104;19.656;2022-11-15T17:07:07;139.65;;;83.68;;
56122;SDS011;42426;46.104;19.656;2022-11-15T17:12:55;160.65;;;91.95;;
56122;SDS011;42426;46.104;19.656;2022-11-15T17:18:43;146.98;;;85.53;;
56122;SDS011;42426;46.104;19.656;2022-11-15T17:28:34;158.05;;;84.90;;
56122;SDS011;42426;46.104;19.656;2022-11-15T17:34:22;140.38;;;79.78;;
56122;SDS011;42426;46.104;19.656;2022-11-15T17:40:09;148.55;;;86.60;;
56122;SDS011;42426;46.104;19.656;2022-11-15T17:45:57;137.40;;;76.38;;